createdAt,value
2018-11-04T00:02:06.873Z,99039.00
2018-11-04T00:04:36.073Z,99032.00
2018-11-04T00:07:05.317Z,99033.00
2018-11-04T00:09:34.402Z,99036.00
2018-11-04T00:12:03.809Z,99036.00
2018-11-04T00:14:33.373Z,99027.00
2018-11-04T00:17:03.001Z,99031.00
2018-11-04T00:19:32.150Z,99038.00
2018-11-04T00:22:01.757Z,99031.00
2018-11-04T00:24:30.853Z,99032.00
2018-11-04T00:26:59.983Z,99033.00
2018-11-04T00:29:29.095Z,99020.00
2018-11-04T00:31:58.217Z,99015.00
2018-11-04T00:34:27.929Z,99015.00
2018-11-04T00:36:57.092Z,99015.00
2018-11-04T00:39:26.573Z,99008.00
2018-11-04T00:41:55.725Z,99003.00
2018-11-04T00:44:24.865Z,98996.00
2018-11-04T00:46:53.953Z,98982.00
2018-11-04T00:49:23.569Z,98979.00
2018-11-04T00:51:52.677Z,98980.00
2018-11-04T00:54:21.817Z,98972.00
2018-11-04T00:56:51.369Z,98971.00
2018-11-04T00:59:20.521Z,98963.00
2018-11-04T01:01:49.689Z,98959.00
2018-11-04T01:04:19.236Z,98956.00
2018-11-04T01:06:48.393Z,98954.00
2018-11-04T01:09:17.617Z,98955.00
2018-11-04T01:11:46.742Z,98950.00
2018-11-04T01:14:15.853Z,98949.00
2018-11-04T01:16:45.005Z,98951.00
2018-11-04T01:19:14.232Z,98950.00
2018-11-04T01:21:43.401Z,98951.00
2018-11-04T01:24:12.693Z,98941.00
2018-11-04T01:26:42.728Z,98935.00
2018-11-04T01:29:12.154Z,98937.00
2018-11-04T01:31:41.264Z,98931.00
2018-11-04T01:34:10.390Z,98929.00
2018-11-04T01:36:40.153Z,98927.00
2018-11-04T01:39:10.081Z,98920.00
2018-11-04T01:41:39.601Z,98915.00
2018-11-04T01:44:11.046Z,98912.00
2018-11-04T01:46:41.768Z,98914.00
2018-11-04T01:49:10.844Z,98906.00
2018-11-04T01:51:39.998Z,98904.00
2018-11-04T01:54:09.136Z,98892.00
2018-11-04T01:56:38.289Z,98887.00
2018-11-04T01:59:07.449Z,98886.00
2018-11-04T02:01:36.679Z,98883.00
2018-11-04T02:04:06.289Z,98877.00
2018-11-04T02:06:35.668Z,98875.00
2018-11-04T02:09:07.181Z,98871.00
2018-11-04T02:11:36.701Z,98856.00
2018-11-04T02:14:06.372Z,98853.00
2018-11-04T02:16:36.244Z,98849.00
2018-11-04T02:19:05.924Z,98843.00
2018-11-04T02:21:35.081Z,98848.00
2018-11-04T02:24:04.241Z,98841.00
2018-11-04T02:26:33.349Z,98837.00
2018-11-04T02:29:02.434Z,98838.00
2018-11-04T02:31:31.553Z,98839.00
2018-11-04T02:34:00.725Z,98836.00
2018-11-04T02:36:29.817Z,98835.00
2018-11-04T02:38:58.944Z,98845.00
2018-11-04T02:41:28.176Z,98840.00
2018-11-04T02:43:57.319Z,98840.00
2018-11-04T02:46:26.441Z,98838.00
2018-11-04T02:48:55.613Z,98836.00
2018-11-04T02:51:24.754Z,98835.00
2018-11-04T02:53:53.884Z,98835.00
2018-11-04T02:56:23.058Z,98831.00
2018-11-04T02:58:52.393Z,98830.00
2018-11-04T03:01:21.490Z,98830.00
2018-11-04T03:03:50.689Z,98828.00
2018-11-04T03:06:19.836Z,98825.00
2018-11-04T03:08:49.576Z,98823.00
2018-11-04T03:11:18.717Z,98829.00
2018-11-04T03:13:47.861Z,98818.00
2018-11-04T03:16:17.050Z,98821.00
2018-11-04T03:18:46.185Z,98818.00
2018-11-04T03:21:15.864Z,98819.00
2018-11-04T03:23:45.009Z,98821.00
2018-11-04T03:26:14.171Z,98828.00
2018-11-04T03:28:43.389Z,98820.00
2018-11-04T03:31:12.509Z,98815.00
2018-11-04T03:33:41.581Z,98818.00
2018-11-04T03:36:10.673Z,98809.00
2018-11-04T03:38:39.767Z,98808.00
2018-11-04T03:41:08.973Z,98807.00
2018-11-04T03:43:38.083Z,98808.00
2018-11-04T03:46:07.601Z,98807.00
2018-11-04T03:48:37.052Z,98805.00
2018-11-04T03:51:06.248Z,98803.00
2018-11-04T03:53:35.346Z,98796.00
2018-11-04T03:56:04.844Z,98786.00
2018-11-04T03:58:34.504Z,98780.00
2018-11-04T04:01:03.663Z,98783.00
2018-11-04T04:03:32.765Z,98786.00
2018-11-04T04:06:01.892Z,98788.00
2018-11-04T04:08:31.080Z,98791.00
2018-11-04T04:11:00.189Z,98799.00
2018-11-04T04:13:29.373Z,98793.00
2018-11-04T04:15:58.473Z,98793.00
2018-11-04T04:18:27.653Z,98791.00
2018-11-04T04:21:00.925Z,98792.00
2018-11-04T04:23:30.005Z,98788.00
2018-11-04T04:25:59.141Z,98786.00
2018-11-04T04:28:28.344Z,98787.00
2018-11-04T04:30:57.524Z,98779.00
2018-11-04T04:33:26.605Z,98778.00
2018-11-04T04:35:55.749Z,98782.00
2018-11-04T04:38:25.501Z,98779.00
2018-11-04T04:40:54.649Z,98780.00
2018-11-04T04:43:23.752Z,98775.00
2018-11-04T04:45:53.289Z,98770.00
2018-11-04T04:48:22.497Z,98770.00
2018-11-04T04:50:52.012Z,98764.00
2018-11-04T04:53:23.857Z,98763.00
2018-11-04T04:55:55.555Z,98760.00
2018-11-04T04:58:24.777Z,98766.00
2018-11-04T05:00:54.713Z,98763.00
2018-11-04T05:03:24.062Z,98764.00
2018-11-04T05:05:53.222Z,98752.00
2018-11-04T05:08:22.520Z,98754.00
2018-11-04T05:10:52.556Z,98753.00
2018-11-04T05:13:21.686Z,98753.00
2018-11-04T05:15:50.784Z,98756.00
2018-11-04T05:18:19.973Z,98750.00
2018-11-04T05:20:49.161Z,98751.00
2018-11-04T05:23:18.243Z,98752.00
2018-11-04T05:25:47.429Z,98747.00
2018-11-04T05:28:16.613Z,98743.00
2018-11-04T05:30:45.761Z,98737.00
2018-11-04T05:33:14.916Z,98732.00
2018-11-04T05:35:45.181Z,98733.00
2018-11-04T05:38:14.429Z,98730.00
2018-11-04T05:40:44.725Z,98729.00
2018-11-04T05:43:13.884Z,98733.00
2018-11-04T05:45:42.997Z,98728.00
2018-11-04T05:48:12.117Z,98731.00
2018-11-04T05:50:41.249Z,98726.00
2018-11-04T05:53:10.384Z,98728.00
2018-11-04T05:55:39.449Z,98727.00
2018-11-04T05:58:08.833Z,98726.00
2018-11-04T06:00:38.873Z,98732.00
2018-11-04T06:03:07.964Z,98735.00
2018-11-04T06:05:37.144Z,98733.00
2018-11-04T06:08:06.852Z,98729.00
2018-11-04T06:10:36.038Z,98731.00
2018-11-04T06:13:05.499Z,98727.00
2018-11-04T06:15:34.701Z,98727.00
2018-11-04T06:18:03.816Z,98736.00
2018-11-04T06:20:33.036Z,98736.00
2018-11-04T06:23:02.168Z,98738.00
2018-11-04T06:25:31.669Z,98732.00
2018-11-04T06:28:00.856Z,98733.00
2018-11-04T06:30:29.967Z,98738.00
2018-11-04T06:32:59.057Z,98735.00
2018-11-04T06:35:28.257Z,98733.00
2018-11-04T06:37:57.373Z,98731.00
2018-11-04T06:40:26.525Z,98734.00
2018-11-04T06:42:56.553Z,98741.00
2018-11-04T06:45:25.660Z,98743.00
2018-11-04T06:47:54.857Z,98740.00
2018-11-04T06:50:23.977Z,98743.00
2018-11-04T06:52:53.049Z,98743.00
2018-11-04T06:55:22.269Z,98747.00
2018-11-04T06:57:51.348Z,98746.00
2018-11-04T07:00:20.980Z,98739.00
2018-11-04T07:02:50.848Z,98738.00
2018-11-04T07:05:20.028Z,98742.00
2018-11-04T07:07:49.177Z,98746.00
2018-11-04T07:10:18.377Z,98739.00
2018-11-04T07:12:47.557Z,98735.00
2018-11-04T07:15:16.689Z,98743.00
2018-11-04T07:17:45.816Z,98737.00
2018-11-04T07:20:15.113Z,98738.00
2018-11-04T07:22:44.260Z,98744.00
2018-11-04T07:25:13.341Z,98754.00
2018-11-04T07:27:42.480Z,98749.00
2018-11-04T07:30:12.858Z,98743.00
2018-11-04T07:32:42.222Z,98747.00
2018-11-04T07:35:11.426Z,98740.00
2018-11-04T07:37:41.380Z,98745.00
2018-11-04T07:40:10.603Z,98753.00
2018-11-04T07:42:39.865Z,98744.00
2018-11-04T07:45:09.861Z,98744.00
2018-11-04T07:47:39.058Z,98741.00
2018-11-04T07:50:12.589Z,98742.00
2018-11-04T07:52:42.633Z,98740.00
2018-11-04T07:55:11.778Z,98745.00
2018-11-04T07:57:42.642Z,98748.00
2018-11-04T08:00:14.225Z,98746.00
2018-11-04T08:02:44.025Z,98744.00
2018-11-04T08:05:13.521Z,98744.00
2018-11-04T08:07:42.641Z,98741.00
2018-11-04T08:10:13.008Z,98730.00
2018-11-04T08:12:42.561Z,98730.00
2018-11-04T08:15:12.068Z,98733.00
2018-11-04T08:17:41.384Z,98734.00
2018-11-04T08:20:10.872Z,98734.00
2018-11-04T08:22:40.519Z,98736.00
2018-11-04T08:25:09.696Z,98739.00
2018-11-04T08:27:38.939Z,98730.00
2018-11-04T08:30:09.562Z,98728.00
2018-11-04T08:32:38.828Z,98733.00
2018-11-04T08:35:07.970Z,98731.00
2018-11-04T08:37:37.093Z,98728.00
2018-11-04T08:40:07.144Z,98728.00
2018-11-04T08:42:36.151Z,98725.00
2018-11-04T08:45:06.534Z,98724.00
2018-11-04T08:47:35.709Z,98725.00
2018-11-04T08:50:06.797Z,98718.00
2018-11-04T08:52:36.116Z,98714.00
2018-11-04T08:55:05.801Z,98711.00
2018-11-04T08:57:34.876Z,98703.00
2018-11-04T09:00:04.653Z,98699.00
2018-11-04T09:02:33.957Z,98691.00
2018-11-04T09:05:03.065Z,98689.00
2018-11-04T09:07:32.283Z,98689.00
2018-11-04T09:10:01.386Z,98697.00
2018-11-04T09:12:30.637Z,98690.00
2018-11-04T09:15:00.236Z,98690.00
2018-11-04T09:17:29.428Z,98683.00
2018-11-04T09:19:58.664Z,98679.00
2018-11-04T09:22:27.952Z,98684.00
2018-11-04T09:24:57.045Z,98683.00
2018-11-04T09:27:26.831Z,98680.00
2018-11-04T09:29:56.173Z,98678.00
2018-11-04T09:32:25.309Z,98671.00
2018-11-04T09:34:54.648Z,98668.00
2018-11-04T09:37:23.705Z,98673.00
2018-11-04T09:39:52.896Z,98666.00
2018-11-04T09:42:22.090Z,98661.00
2018-11-04T09:44:51.232Z,98654.00
2018-11-04T09:47:20.373Z,98645.00
2018-11-04T09:49:49.545Z,98649.00
2018-11-04T09:52:18.743Z,98644.00
2018-11-04T09:54:47.921Z,98646.00
2018-11-04T09:57:17.529Z,98644.00
2018-11-04T09:59:46.921Z,98637.00
2018-11-04T10:02:16.265Z,98631.00
2018-11-04T10:04:45.469Z,98622.00
2018-11-04T10:07:14.760Z,98618.00
2018-11-04T10:09:43.865Z,98617.00
2018-11-04T10:12:13.677Z,98610.00
2018-11-04T10:14:42.881Z,98599.00
2018-11-04T10:17:12.057Z,98595.00
2018-11-04T10:19:41.272Z,98596.00
2018-11-04T10:22:10.297Z,98596.00
2018-11-04T10:24:39.591Z,98589.00
2018-11-04T10:27:08.753Z,98593.00
2018-11-04T10:29:38.255Z,98589.00
2018-11-04T10:32:07.461Z,98590.00
2018-11-04T10:34:36.608Z,98588.00
2018-11-04T10:37:06.584Z,98584.00
2018-11-04T10:39:35.680Z,98587.00
2018-11-04T10:42:04.909Z,98589.00
2018-11-04T10:44:34.037Z,98594.00
2018-11-04T10:47:03.204Z,98596.00
2018-11-04T10:49:32.630Z,98589.00
2018-11-04T10:52:01.546Z,98593.00
2018-11-04T10:54:30.669Z,98588.00
2018-11-04T10:56:59.774Z,98581.00
2018-11-04T10:59:28.994Z,98572.00
2018-11-04T11:01:58.121Z,98576.00
2018-11-04T11:04:27.231Z,98574.00
2018-11-04T11:06:56.365Z,98576.00
2018-11-04T11:09:25.565Z,98567.00
2018-11-04T11:11:54.633Z,98563.00
2018-11-04T11:14:23.815Z,98562.00
2018-11-04T11:16:52.954Z,98549.00
2018-11-04T11:19:22.125Z,98542.00
2018-11-04T11:21:51.321Z,98533.00
2018-11-04T11:24:20.441Z,98533.00
2018-11-04T11:26:49.592Z,98522.00
2018-11-04T11:29:18.801Z,98514.00
2018-11-04T11:31:47.937Z,98514.00
2018-11-04T11:34:17.096Z,98516.00
2018-11-04T11:36:46.293Z,98519.00
2018-11-04T11:39:15.413Z,98512.00
2018-11-04T11:41:44.697Z,98503.00
2018-11-04T11:44:13.897Z,98501.00
2018-11-04T11:46:43.090Z,98493.00
2018-11-04T11:49:12.720Z,98488.00
2018-11-04T11:51:42.277Z,98478.00
2018-11-04T11:54:11.505Z,98469.00
2018-11-04T11:56:40.615Z,98469.00
2018-11-04T11:59:10.096Z,98462.00
2018-11-04T12:01:39.259Z,98447.00
2018-11-04T12:04:08.417Z,98456.00
2018-11-04T12:06:38.890Z,98456.00
2018-11-04T12:09:09.505Z,98454.00
2018-11-04T12:11:38.645Z,98442.00
2018-11-04T12:14:07.873Z,98447.00
2018-11-04T12:16:37.057Z,98459.00
2018-11-04T12:19:06.228Z,98450.00
2018-11-04T12:21:35.429Z,98454.00
2018-11-04T12:24:04.637Z,98448.00
2018-11-04T12:26:33.814Z,98445.00
2018-11-04T12:29:03.039Z,98436.00
2018-11-04T12:31:32.241Z,98447.00
2018-11-04T12:34:01.385Z,98446.00
2018-11-04T12:36:30.661Z,98436.00
2018-11-04T12:38:59.905Z,98428.00
2018-11-04T12:41:29.030Z,98431.00
2018-11-04T12:43:58.217Z,98428.00
2018-11-04T12:46:27.373Z,98425.00
2018-11-04T12:48:56.492Z,98423.00
2018-11-04T12:51:26.053Z,98419.00
2018-11-04T12:53:55.217Z,98420.00
2018-11-04T12:56:24.372Z,98420.00
2018-11-04T12:58:54.544Z,98418.00
2018-11-04T13:01:23.710Z,98422.00
2018-11-04T13:03:53.017Z,98423.00
2018-11-04T13:06:22.773Z,98423.00
2018-11-04T13:08:51.948Z,98415.00
2018-11-04T13:11:21.121Z,98421.00
2018-11-04T13:13:50.237Z,98417.00
2018-11-04T13:16:19.365Z,98411.00
2018-11-04T13:18:48.556Z,98415.00
2018-11-04T13:21:17.797Z,98410.00
2018-11-04T13:23:46.892Z,98410.00
2018-11-04T13:26:16.038Z,98409.00
2018-11-04T13:28:45.221Z,98406.00
2018-11-04T13:31:14.385Z,98400.00
2018-11-04T13:33:43.601Z,98399.00
2018-11-04T13:36:12.786Z,98401.00
2018-11-04T13:38:42.912Z,98390.00
2018-11-04T13:41:12.132Z,98383.00
2018-11-04T13:43:41.584Z,98392.00
2018-11-04T13:46:11.645Z,98394.00
2018-11-04T13:48:41.309Z,98385.00
2018-11-04T13:51:10.745Z,98386.00
2018-11-04T13:53:39.853Z,98386.00
2018-11-04T13:56:09.028Z,98385.00
2018-11-04T13:58:38.157Z,98380.00
2018-11-04T14:01:07.422Z,98389.00
2018-11-04T14:03:36.669Z,98380.00
2018-11-04T14:06:06.146Z,98376.00
2018-11-04T14:08:35.345Z,98372.00
2018-11-04T14:11:04.961Z,98364.00
2018-11-04T14:13:34.180Z,98365.00
2018-11-04T14:16:03.233Z,98360.00
2018-11-04T14:18:32.400Z,98359.00
2018-11-04T14:21:01.806Z,98360.00
2018-11-04T14:23:31.112Z,98354.00
2018-11-04T14:26:00.283Z,98349.00
2018-11-04T14:28:29.824Z,98350.00
2018-11-04T14:30:58.998Z,98341.00
2018-11-04T14:33:28.153Z,98342.00
2018-11-04T14:35:57.325Z,98336.00
2018-11-04T14:38:26.517Z,98335.00
2018-11-04T14:40:56.204Z,98328.00
2018-11-04T14:43:25.769Z,98326.00
2018-11-04T14:45:54.996Z,98323.00
2018-11-04T14:48:24.462Z,98326.00
2018-11-04T14:50:53.609Z,98317.00
2018-11-04T14:53:22.749Z,98317.00
2018-11-04T14:55:52.233Z,98319.00
2018-11-04T14:58:21.862Z,98312.00
2018-11-04T15:00:51.025Z,98306.00
2018-11-04T15:03:20.106Z,98308.00
2018-11-04T15:05:49.269Z,98307.00
2018-11-04T15:08:18.457Z,98306.00
2018-11-04T15:10:47.626Z,98311.00
2018-11-04T15:13:17.469Z,98319.00
2018-11-04T15:15:46.569Z,98312.00
2018-11-04T15:18:15.745Z,98311.00
2018-11-04T15:20:44.830Z,98314.00
2018-11-04T15:23:14.014Z,98312.00
2018-11-04T15:25:43.745Z,98308.00
2018-11-04T15:28:12.898Z,98310.00
2018-11-04T15:30:42.037Z,98314.00
2018-11-04T15:33:11.216Z,98305.00
2018-11-04T15:35:40.341Z,98302.00
2018-11-04T15:38:09.472Z,98297.00
2018-11-04T15:40:38.687Z,98291.00
2018-11-04T15:43:07.705Z,98290.00
2018-11-04T15:45:36.841Z,98291.00
2018-11-04T15:48:06.026Z,98296.00
2018-11-04T15:50:35.132Z,98300.00
2018-11-04T15:53:04.317Z,98289.00
2018-11-04T15:55:33.444Z,98286.00
2018-11-04T15:58:02.849Z,98285.00
2018-11-04T16:00:32.745Z,98275.00
2018-11-04T16:03:01.917Z,98282.00
2018-11-04T16:05:31.227Z,98285.00
2018-11-04T16:08:00.244Z,98280.00
2018-11-04T16:10:29.425Z,98282.00
2018-11-04T16:12:58.653Z,98283.00
2018-11-04T16:15:27.813Z,98285.00
2018-11-04T16:17:57.015Z,98276.00
2018-11-04T16:20:26.093Z,98277.00
2018-11-04T16:22:55.284Z,98263.00
2018-11-04T16:25:24.523Z,98263.00
2018-11-04T16:27:53.721Z,98263.00
2018-11-04T16:30:22.906Z,98263.00
2018-11-04T16:32:52.047Z,98262.00
2018-11-04T16:35:21.181Z,98255.00
2018-11-04T16:37:50.348Z,98253.00
2018-11-04T16:40:19.576Z,98256.00
2018-11-04T16:42:48.660Z,98257.00
2018-11-04T16:45:17.805Z,98263.00
2018-11-04T16:47:46.978Z,98266.00
2018-11-04T16:50:16.418Z,98267.00
2018-11-04T16:52:46.056Z,98270.00
2018-11-04T16:55:15.748Z,98275.00
2018-11-04T16:57:45.180Z,98281.00
2018-11-04T17:00:14.337Z,98271.00
2018-11-04T17:02:43.492Z,98273.00
2018-11-04T17:05:13.406Z,98274.00
2018-11-04T17:07:42.928Z,98271.00
2018-11-04T17:10:12.328Z,98275.00
2018-11-04T17:12:41.577Z,98285.00
2018-11-04T17:15:12.736Z,98274.00
2018-11-04T17:17:41.922Z,98271.00
2018-11-04T17:20:15.685Z,98274.00
2018-11-04T17:22:45.453Z,98274.00
2018-11-04T17:25:14.576Z,98272.00
2018-11-04T17:27:43.778Z,98277.00
2018-11-04T17:30:16.128Z,98272.00
2018-11-04T17:32:45.497Z,98272.00
2018-11-04T17:35:15.715Z,98281.00
2018-11-04T17:37:45.669Z,98279.00
2018-11-04T17:40:15.400Z,98279.00
2018-11-04T17:42:44.802Z,98272.00
2018-11-04T17:45:15.385Z,98267.00
2018-11-04T17:47:45.097Z,98262.00
2018-11-04T17:50:16.266Z,98250.00
2018-11-04T17:52:45.916Z,98258.00
2018-11-04T17:55:15.239Z,98251.00
2018-11-04T17:57:44.572Z,98253.00
2018-11-04T18:00:14.902Z,98247.00
2018-11-04T18:02:44.329Z,98243.00
2018-11-04T18:05:14.653Z,98234.00
2018-11-04T18:07:44.314Z,98243.00
2018-11-04T18:10:14.274Z,98236.00
2018-11-04T18:12:43.629Z,98228.00
2018-11-04T18:15:14.263Z,98224.00
2018-11-04T18:17:43.421Z,98225.00
2018-11-04T18:20:13.281Z,98227.00
2018-11-04T18:22:43.429Z,98234.00
2018-11-04T18:25:13.291Z,98233.00
2018-11-04T18:27:43.014Z,98233.00
2018-11-04T18:30:14.346Z,98241.00
2018-11-04T18:32:45.197Z,98234.00
2018-11-04T18:35:14.549Z,98234.00
2018-11-04T18:37:43.889Z,98233.00
2018-11-04T18:40:15.113Z,98231.00
2018-11-04T18:42:45.063Z,98234.00
2018-11-04T18:45:15.429Z,98228.00
2018-11-04T18:47:45.006Z,98234.00
2018-11-04T18:50:15.018Z,98230.00
2018-11-04T18:52:44.181Z,98229.00
2018-11-04T18:55:13.509Z,98235.00
2018-11-04T18:57:43.735Z,98241.00
2018-11-04T19:00:18.345Z,98231.00
2018-11-04T19:02:48.301Z,98232.00
2018-11-04T19:05:18.276Z,98229.00
2018-11-04T19:07:47.356Z,98230.00
2018-11-04T19:10:18.221Z,98231.00
2018-11-04T19:12:47.364Z,98230.00
2018-11-04T19:15:16.433Z,98223.00
2018-11-04T19:17:45.596Z,98226.00
2018-11-04T19:20:15.601Z,98223.00
2018-11-04T19:22:45.071Z,98230.00
2018-11-04T19:25:15.342Z,98234.00
2018-11-04T19:27:44.471Z,98228.00
2018-11-04T19:30:15.032Z,98232.00
2018-11-04T19:32:45.084Z,98233.00
2018-11-04T19:35:15.204Z,98220.00
2018-11-04T19:37:44.356Z,98224.00
2018-11-04T19:40:14.881Z,98224.00
2018-11-04T19:42:44.204Z,98223.00
2018-11-04T19:45:13.324Z,98228.00
2018-11-04T19:47:42.473Z,98228.00
2018-11-04T19:50:12.802Z,98231.00
2018-11-04T19:52:42.409Z,98219.00
2018-11-04T19:55:12.244Z,98216.00
2018-11-04T19:57:41.816Z,98210.00
2018-11-04T20:00:12.245Z,98204.00
2018-11-04T20:02:41.469Z,98199.00
2018-11-04T20:05:12.069Z,98194.00
2018-11-04T20:07:41.269Z,98189.00
2018-11-04T20:10:13.369Z,98187.00
2018-11-04T20:12:47.825Z,98187.00
2018-11-04T20:15:17.014Z,98184.00
2018-11-04T20:17:47.673Z,98183.00
2018-11-04T20:20:21.982Z,98191.00
2018-11-04T20:22:51.018Z,98183.00
2018-11-04T20:25:25.872Z,98190.00
2018-11-04T20:27:54.953Z,98195.00
2018-11-04T20:30:24.033Z,98198.00
2018-11-04T20:32:58.548Z,98182.00
2018-11-04T20:35:28.714Z,98176.00
2018-11-04T20:37:57.864Z,98171.00
2018-11-04T20:40:32.449Z,98179.00
2018-11-04T20:43:01.557Z,98184.00
2018-11-04T20:45:30.669Z,98171.00
2018-11-04T20:48:05.120Z,98164.00
2018-11-04T20:50:39.454Z,98171.00
2018-11-04T20:53:08.636Z,98171.00
2018-11-04T20:55:43.048Z,98170.00
2018-11-04T20:58:12.264Z,98170.00
2018-11-04T21:00:41.319Z,98167.00
2018-11-04T21:03:10.453Z,98161.00
2018-11-04T21:05:41.078Z,98157.00
2018-11-04T21:08:10.345Z,98152.00
2018-11-04T21:10:39.446Z,98150.00
2018-11-04T21:13:08.658Z,98134.00
2018-11-04T21:15:37.815Z,98131.00
2018-11-04T21:18:06.946Z,98135.00
2018-11-04T21:20:36.557Z,98132.00
2018-11-04T21:23:05.709Z,98132.00
2018-11-04T21:25:35.085Z,98135.00
2018-11-04T21:28:04.226Z,98140.00
2018-11-04T21:30:33.257Z,98136.00
2018-11-04T21:33:02.441Z,98140.00
2018-11-04T21:35:31.608Z,98144.00
2018-11-04T21:38:00.858Z,98153.00
2018-11-04T21:40:30.033Z,98150.00
2018-11-04T21:42:59.750Z,98151.00
2018-11-04T21:45:28.862Z,98149.00
2018-11-04T21:47:58.057Z,98136.00
2018-11-04T21:50:27.259Z,98126.00
2018-11-04T21:52:56.482Z,98134.00
2018-11-04T21:55:26.472Z,98130.00
2018-11-04T21:57:55.369Z,98132.00
2018-11-04T22:00:24.537Z,98124.00
2018-11-04T22:02:53.824Z,98131.00
2018-11-04T22:05:22.900Z,98131.00
2018-11-04T22:07:52.190Z,98130.00
2018-11-04T22:10:21.331Z,98130.00
2018-11-04T22:12:50.964Z,98127.00
2018-11-04T22:15:20.136Z,98127.00
2018-11-04T22:17:49.229Z,98123.00
2018-11-04T22:20:18.420Z,98124.00
2018-11-04T22:22:47.593Z,98119.00
2018-11-04T22:25:16.805Z,98120.00
2018-11-04T22:27:46.004Z,98120.00
2018-11-04T22:30:15.825Z,98118.00
2018-11-04T22:32:44.945Z,98121.00
2018-11-04T22:35:14.125Z,98110.00
2018-11-04T22:37:43.359Z,98110.00
2018-11-04T22:40:12.776Z,98107.00
2018-11-04T22:42:42.289Z,98104.00
2018-11-04T22:45:12.353Z,98090.00
2018-11-04T22:47:42.430Z,98097.00
2018-11-04T22:50:14.541Z,98095.00
2018-11-04T22:52:44.094Z,98087.00
2018-11-04T22:55:14.734Z,98087.00
2018-11-04T22:57:44.469Z,98081.00
2018-11-04T23:00:18.904Z,98083.00
2018-11-04T23:02:50.128Z,98080.00
2018-11-04T23:05:24.570Z,98081.00
2018-11-04T23:07:53.699Z,98087.00
2018-11-04T23:10:23.901Z,98094.00
2018-11-04T23:12:53.085Z,98084.00
2018-11-04T23:15:22.173Z,98080.00
2018-11-04T23:17:51.349Z,98073.00
2018-11-04T23:20:20.623Z,98077.00
2018-11-04T23:22:49.832Z,98076.00
2018-11-04T23:25:18.953Z,98084.00
2018-11-04T23:27:48.045Z,98082.00
2018-11-04T23:30:19.262Z,98081.00
2018-11-04T23:32:48.877Z,98080.00
2018-11-04T23:35:18.016Z,98077.00
2018-11-04T23:37:47.120Z,98070.00
2018-11-04T23:40:16.276Z,98069.00
2018-11-04T23:42:45.512Z,98063.00
2018-11-04T23:45:15.265Z,98055.00
2018-11-04T23:47:44.973Z,98055.00
2018-11-04T23:50:16.952Z,98057.00
2018-11-04T23:52:46.238Z,98049.00
2018-11-04T23:55:16.309Z,98051.00
2018-11-04T23:57:46.089Z,98047.00
